Time;durP1;ratioP1;P1;durP2;ratioP2;P2;SDS_P1;SDS_P2;PMS_P1;PMS_P2;Temp;Humidity;BMP_temperature;BMP_pressure;BME280_temperature;BME280_humidity;BME280_pressure;Samples;Min_cycle;Max_cycle;Signal;HPM_P1;HPM_P2
2022/08/19 00:00:07;;;;;;;15.27;13.73;;;21.30;99.90;;;;;;5014522;28;20194;-88
2022/08/19 00:02:33;;;;;;;13.80;12.45;;;21.30;99.90;;;;;;5014840;28;20249;-88
2022/08/19 00:04:59;;;;;;;15.50;14.10;;;21.30;99.90;;;;;;5014526;28;20206;-87
2022/08/19 00:07:25;;;;;;;15.07;13.68;;;21.30;99.90;;;;;;5014645;28;20179;-87
2022/08/19 00:09:51;;;;;;;15.60;14.10;;;21.30;99.90;;;;;;5030538;28;20434;-87
2022/08/19 00:12:17;;;;;;;17.50;15.82;;;21.30;99.90;;;;;;5030030;28;20199;-87
2022/08/19 00:14:43;;;;;;;17.05;15.30;;;21.30;99.90;;;;;;5013375;28;20186;-87
2022/08/19 00:17:09;;;;;;;16.35;14.90;;;21.20;99.90;;;;;;5013024;28;20183;-87
2022/08/19 00:19:36;;;;;;;16.67;15.18;;;21.20;99.90;;;;;;5014068;28;20187;-87
2022/08/19 00:22:03;;;;;;;15.65;14.02;;;21.10;99.90;;;;;;5030581;28;20252;-87
2022/08/19 00:24:29;;;;;;;15.25;13.75;;;21.00;99.90;;;;;;5017587;28;20185;-87
2022/08/19 00:26:56;;;;;;;17.15;15.55;;;21.00;99.90;;;;;;5017504;28;20210;-87
2022/08/19 00:29:23;;;;;;;18.83;17.02;;;20.90;99.90;;;;;;5017702;28;20174;-87
2022/08/19 00:31:52;;;;;;;17.23;15.63;;;20.80;99.90;;;;;;5017416;28;20209;-87
2022/08/19 00:34:18;;;;;;;17.25;15.52;;;20.80;99.90;;;;;;5017768;28;20179;-87
2022/08/19 00:36:45;;;;;;;17.48;15.68;;;20.70;99.90;;;;;;5016754;28;20669;-87
2022/08/19 00:39:12;;;;;;;16.13;14.63;;;20.70;99.90;;;;;;5034081;28;20183;-87
2022/08/19 00:41:39;;;;;;;16.85;15.27;;;20.70;99.90;;;;;;5016394;28;20238;-87
2022/08/19 00:44:16;;;;;;;15.90;14.30;;;20.60;99.90;;;;;;5033824;28;20183;-87
2022/08/19 00:46:46;;;;;;;17.67;15.98;;;20.60;99.90;;;;;;5017187;28;20198;-87
2022/08/19 00:49:21;;;;;;;16.88;15.15;;;20.50;99.90;;;;;;5033834;28;20194;-87
2022/08/19 00:51:51;;;;;;;19.02;17.23;;;20.50;99.90;;;;;;5016814;28;20201;-87
2022/08/19 00:54:18;;;;;;;17.75;15.95;;;20.50;99.90;;;;;;5033730;28;20206;-87
2022/08/19 00:56:45;;;;;;;18.33;16.52;;;20.50;99.90;;;;;;5017073;28;20205;-86
2022/08/19 00:59:11;;;;;;;19.58;17.48;;;20.60;99.90;;;;;;5017262;28;20182;-87
2022/08/19 01:01:40;;;;;;;19.38;17.42;;;20.60;99.90;;;;;;5050119;28;20198;-86
2022/08/19 01:04:06;;;;;;;17.98;16.15;;;20.60;99.90;;;;;;5016771;28;20186;-87
2022/08/19 01:06:35;;;;;;;18.52;16.63;;;20.50;99.90;;;;;;5016683;28;20270;-87
2022/08/19 01:09:01;;;;;;;19.55;17.65;;;20.40;99.90;;;;;;5016868;28;20179;-86
2022/08/19 01:11:33;;;;;;;19.15;16.80;;;20.40;99.90;;;;;;5016528;28;20178;-86
2022/08/19 01:13:59;;;;;;;19.50;17.50;;;20.40;99.90;;;;;;5016767;28;20183;-87
2022/08/19 01:16:28;;;;;;;21.15;17.58;;;20.30;99.90;;;;;;5033257;28;20228;-86
2022/08/19 01:18:54;;;;;;;18.85;16.85;;;20.30;99.90;;;;;;5016680;28;20189;-87
2022/08/19 01:21:39;;;;;;;20.10;18.05;;;20.30;99.90;;;;;;5016555;28;20182;-87
2022/08/19 01:24:05;;;;;;;20.02;17.92;;;20.30;99.90;;;;;;5016645;28;20257;-87
2022/08/19 01:26:37;;;;;;;20.05;17.98;;;20.20;99.90;;;;;;5049696;28;20210;-87
2022/08/19 01:29:03;;;;;;;19.15;17.15;;;20.20;99.90;;;;;;5016542;28;20174;-87
2022/08/19 01:31:30;;;;;;;20.60;18.40;;;20.20;99.90;;;;;;5016112;28;20185;-87
2022/08/19 01:33:57;;;;;;;21.52;19.30;;;20.20;99.90;;;;;;5015924;28;20623;-87
2022/08/19 01:36:38;;;;;;;20.15;18.05;;;20.20;99.90;;;;;;5016585;28;20190;-87
2022/08/19 01:39:09;;;;;;;22.17;19.88;;;20.20;99.90;;;;;;5032798;28;20179;-87
2022/08/19 01:41:35;;;;;;;22.08;19.70;;;20.10;99.90;;;;;;5032407;28;20179;-87
2022/08/19 01:44:03;;;;;;;21.83;19.63;;;20.10;99.90;;;;;;5032671;28;20582;-87
2022/08/19 01:46:43;;;;;;;21.17;18.98;;;20.20;99.90;;;;;;5032787;28;20198;-87
2022/08/19 01:49:29;;;;;;;20.10;17.90;;;20.20;99.90;;;;;;5016015;28;20260;-87
2022/08/19 01:51:55;;;;;;;20.42;18.25;;;20.20;99.90;;;;;;5015666;28;20244;-87
2022/08/19 01:54:23;;;;;;;22.38;19.83;;;20.10;99.90;;;;;;5032476;28;20181;-87
2022/08/19 01:56:54;;;;;;;21.55;19.25;;;20.10;99.90;;;;;;5016047;28;20269;-87
2022/08/19 01:59:22;;;;;;;22.60;20.17;;;20.10;99.90;;;;;;5016270;28;20182;-87
2022/08/19 02:01:48;;;;;;;23.80;19.95;;;20.10;99.90;;;;;;5015610;28;20328;-87
2022/08/19 02:04:14;;;;;;;27.55;21.38;;;20.10;99.90;;;;;;5015787;28;20269;-87
2022/08/19 02:06:40;;;;;;;23.77;20.15;;;20.00;99.90;;;;;;5015800;28;20203;-87
2022/08/19 02:09:07;;;;;;;23.75;19.67;;;20.10;99.90;;;;;;5015784;28;20175;-87
2022/08/19 02:11:35;;;;;;;23.75;21.05;;;20.10;99.90;;;;;;5031896;28;20288;-87
2022/08/19 02:14:05;;;;;;;24.52;21.25;;;20.00;99.90;;;;;;5015977;28;20171;-87
2022/08/19 02:16:32;;;;;;;23.20;20.70;;;20.00;99.90;;;;;;5015725;28;20572;-87
2022/08/19 02:19:00;;;;;;;23.13;20.42;;;20.00;99.90;;;;;;5015606;28;20189;-87
2022/08/19 02:21:26;;;;;;;24.55;21.95;;;19.90;99.90;;;;;;5031773;28;20181;-87
2022/08/19 02:23:52;;;;;;;25.27;21.38;;;19.90;99.90;;;;;;5033111;28;20201;-87
2022/08/19 02:26:19;;;;;;;25.38;20.92;;;19.90;99.90;;;;;;5015557;28;20221;-87
2022/08/19 02:28:44;;;;;;;26.42;21.83;;;19.90;99.90;;;;;;5015592;28;20242;-87
2022/08/19 02:31:14;;;;;;;21.48;18.85;;;19.90;99.90;;;;;;5015076;28;20281;-87
2022/08/19 02:33:41;;;;;;;22.48;18.88;;;19.90;99.90;;;;;;5031541;28;20191;-87
2022/08/19 02:36:08;;;;;;;23.00;20.42;;;19.80;99.90;;;;;;5015456;28;20275;-86
2022/08/19 02:39:08;;;;;;;23.85;21.10;;;19.80;99.90;;;;;;5015452;28;20179;-87
2022/08/19 02:41:34;;;;;;;25.20;19.63;;;19.70;99.90;;;;;;5015221;28;20170;-87
2022/08/19 02:44:03;;;;;;;25.75;22.20;;;19.60;99.90;;;;;;5048601;28;20206;-87
2022/08/19 02:46:31;;;;;;;23.38;19.98;;;19.60;99.90;;;;;;5030730;28;20198;-87
2022/08/19 02:49:04;;;;;;;23.95;21.45;;;19.60;99.90;;;;;;5031871;28;20265;-87
2022/08/19 02:51:38;;;;;;;23.35;20.63;;;19.70;99.90;;;;;;5031254;28;20170;-87
2022/08/19 02:54:05;;;;;;;25.30;20.80;;;19.70;99.90;;;;;;5015442;28;20163;-87
2022/08/19 02:56:33;;;;;;;23.38;20.08;;;19.70;99.90;;;;;;5014931;28;20179;-87
2022/08/19 02:58:59;;;;;;;25.80;21.25;;;19.70;99.90;;;;;;5015527;28;20178;-87
2022/08/19 03:01:29;;;;;;;24.27;21.50;;;19.60;99.90;;;;;;5031082;28;20228;-87
2022/08/19 03:03:56;;;;;;;24.92;21.25;;;19.60;99.90;;;;;;5014921;28;20201;-87
2022/08/19 03:06:22;;;;;;;23.55;20.92;;;19.60;99.90;;;;;;5014996;28;20726;-87
2022/08/19 03:08:49;;;;;;;25.52;22.15;;;19.60;99.90;;;;;;5031345;28;20171;-87
2022/08/19 03:11:23;;;;;;;24.17;21.48;;;19.60;99.90;;;;;;5014575;28;20182;-87
2022/08/19 03:13:50;;;;;;;26.73;22.67;;;19.60;99.90;;;;;;5015008;28;20171;-87
2022/08/19 03:16:18;;;;;;;26.83;22.40;;;19.60;99.90;;;;;;5014821;28;20266;-87
2022/08/19 03:18:44;;;;;;;23.58;21.00;;;19.50;99.90;;;;;;5031372;28;20186;-87
2022/08/19 03:21:20;;;;;;;25.90;20.83;;;19.50;99.90;;;;;;5030993;28;20178;-87
2022/08/19 03:23:46;;;;;;;24.50;21.55;;;19.50;99.90;;;;;;5015201;28;20174;-87
2022/08/19 03:26:14;;;;;;;27.50;22.58;;;19.50;99.90;;;;;;5032146;28;20206;-87
2022/08/19 03:28:41;;;;;;;25.45;21.90;;;19.50;99.90;;;;;;5014691;28;20182;-87
2022/08/19 03:31:12;;;;;;;28.27;22.08;;;19.50;99.90;;;;;;5014472;28;20216;-87
2022/08/19 03:33:38;;;;;;;25.33;22.48;;;19.60;99.90;;;;;;5031155;28;20194;-87
2022/08/19 03:36:14;;;;;;;25.58;21.73;;;19.60;99.90;;;;;;5014790;28;20244;-87
2022/08/19 03:38:48;;;;;;;23.45;20.95;;;19.60;99.90;;;;;;5014749;28;20186;-87
2022/08/19 03:41:18;;;;;;;27.83;22.35;;;19.60;99.90;;;;;;5014745;28;20213;-87
2022/08/19 03:43:46;;;;;;;25.67;22.73;;;19.60;99.90;;;;;;5031322;28;20187;-87
2022/08/19 03:46:21;;;;;;;25.88;22.35;;;19.60;99.90;;;;;;5031069;28;20190;-87
2022/08/19 03:48:53;;;;;;;25.60;21.45;;;19.60;99.90;;;;;;5014534;28;20163;-87
2022/08/19 03:51:24;;;;;;;24.38;21.42;;;19.60;99.90;;;;;;5014267;28;20316;-87
2022/08/19 03:53:51;;;;;;;28.52;22.92;;;19.60;99.90;;;;;;5014571;28;20170;-87
2022/08/19 03:56:17;;;;;;;24.88;22.27;;;19.60;99.90;;;;;;5014933;28;20269;-87
2022/08/19 03:58:43;;;;;;;25.95;22.35;;;19.60;99.90;;;;;;5034935;28;20685;-87
2022/08/19 04:01:19;;;;;;;25.27;22.33;;;19.60;99.90;;;;;;5017371;28;20185;-87
2022/08/19 04:03:46;;;;;;;28.55;23.67;;;19.60;99.90;;;;;;5035090;28;20174;-87
2022/08/19 04:06:18;;;;;;;24.90;21.92;;;19.60;99.90;;;;;;5017981;28;20226;-87
2022/08/19 04:08:45;;;;;;;26.20;22.48;;;19.60;99.90;;;;;;5017953;28;20174;-87
2022/08/19 04:11:21;;;;;;;24.88;21.73;;;19.60;99.90;;;;;;5034378;28;20170;-87
2022/08/19 04:13:48;;;;;;;27.30;21.52;;;19.50;99.90;;;;;;5017998;28;20177;-87
2022/08/19 04:16:14;;;;;;;22.83;20.38;;;19.50;99.90;;;;;;5017886;28;20213;-87
2022/08/19 04:18:40;;;;;;;26.75;23.42;;;19.40;99.90;;;;;;5017059;28;20178;-87
2022/08/19 04:21:07;;;;;;;28.58;23.90;;;19.40;99.90;;;;;;5017645;28;20213;-87
2022/08/19 04:23:35;;;;;;;29.50;23.42;;;19.40;99.90;;;;;;5034341;28;20206;-87
2022/08/19 04:26:02;;;;;;;29.17;24.23;;;19.30;99.90;;;;;;5017879;28;20261;-87
2022/08/19 04:28:28;;;;;;;29.65;24.65;;;19.40;99.90;;;;;;5018498;28;20182;-87
2022/08/19 04:30:55;;;;;;;27.73;24.40;;;19.40;99.90;;;;;;5017338;28;20183;-87
2022/08/19 04:33:24;;;;;;;26.88;23.52;;;19.40;99.90;;;;;;5017854;28;20191;-87
2022/08/19 04:35:51;;;;;;;26.63;23.83;;;19.50;99.90;;;;;;5017658;28;20218;-87
2022/08/19 04:38:22;;;;;;;29.52;25.30;;;19.50;99.90;;;;;;5017559;28;20225;-87
2022/08/19 04:43:38;;;;;;;29.10;25.05;;;19.50;99.90;;;;;;5033919;28;20210;-87
2022/08/19 04:46:10;;;;;;;28.38;25.17;;;19.60;99.90;;;;;;5034012;28;20194;-87
2022/08/19 04:48:36;;;;;;;28.60;24.70;;;19.50;99.90;;;;;;5034032;28;20178;-87
2022/08/19 04:51:07;;;;;;;29.92;25.95;;;19.50;99.90;;;;;;5033900;28;20171;-87
2022/08/19 04:53:35;;;;;;;31.20;25.52;;;19.50;99.90;;;;;;5033589;28;20233;-87
2022/08/19 04:56:07;;;;;;;29.20;25.35;;;19.50;99.90;;;;;;5017825;28;20278;-87
2022/08/19 04:58:33;;;;;;;29.02;25.38;;;19.50;99.90;;;;;;5017523;28;20179;-87
2022/08/19 05:01:22;;;;;;;28.85;25.05;;;19.50;99.90;;;;;;5016374;28;20214;-87
2022/08/19 05:03:49;;;;;;;27.50;24.17;;;19.40;99.90;;;;;;5016940;28;20253;-87
2022/08/19 05:09:38;;;;;;;30.17;26.60;;;19.50;99.90;;;;;;5032851;28;20198;-87
2022/08/19 05:12:05;;;;;;;32.08;26.10;;;19.50;99.90;;;;;;5016665;28;20198;-87
2022/08/19 05:14:31;;;;;;;32.60;25.63;;;19.50;99.90;;;;;;5033275;28;20175;-87
2022/08/19 05:16:57;;;;;;;29.38;25.58;;;19.50;99.90;;;;;;5033581;28;20186;-87
2022/08/19 05:24:51;;;;;;;30.10;26.58;;;19.50;99.90;;;;;;5033022;28;20194;-87
2022/08/19 05:27:17;;;;;;;29.52;26.00;;;19.50;99.90;;;;;;5016262;28;20187;-88
2022/08/19 05:29:43;;;;;;;32.88;27.15;;;19.50;99.90;;;;;;5033256;28;20182;-88
2022/08/19 05:32:10;;;;;;;33.78;28.67;;;19.50;99.90;;;;;;5016240;28;20289;-88
2022/08/19 05:34:37;;;;;;;31.63;26.42;;;19.50;99.90;;;;;;5016313;28;20181;-88
2022/08/19 05:37:04;;;;;;;32.53;26.23;;;19.50;99.90;;;;;;5033078;28;20236;-87
2022/08/19 05:39:33;;;;;;;33.28;27.05;;;19.50;99.90;;;;;;5016294;28;20183;-88
2022/08/19 05:42:08;;;;;;;31.77;26.33;;;19.50;99.90;;;;;;5016017;28;20214;-88
2022/08/19 05:44:43;;;;;;;28.77;25.60;;;19.50;99.90;;;;;;5016385;28;20216;-87
2022/08/19 05:47:11;;;;;;;28.80;25.70;;;19.50;99.90;;;;;;5016610;28;20204;-88
2022/08/19 05:49:37;;;;;;;30.13;25.55;;;19.50;99.90;;;;;;5016005;28;20174;-88
2022/08/19 05:52:06;;;;;;;27.80;24.55;;;19.50;99.90;;;;;;5015834;28;20198;-88
2022/08/19 05:54:32;;;;;;;30.20;24.73;;;19.50;99.90;;;;;;5016331;28;20178;-87
2022/08/19 06:00:17;;;;;;;31.33;25.63;;;19.50;99.90;;;;;;5032262;28;20265;-88
2022/08/19 06:02:43;;;;;;;30.92;25.70;;;19.50;99.90;;;;;;5015935;28;20299;-87
2022/08/19 06:05:09;;;;;;;31.67;27.13;;;19.50;99.90;;;;;;5016459;28;20307;-87
2022/08/19 06:07:37;;;;;;;29.45;24.60;;;19.50;99.90;;;;;;5015938;28;20171;-87
2022/08/19 06:10:05;;;;;;;29.35;24.67;;;19.50;99.90;;;;;;5015792;28;20178;-87
2022/08/19 06:12:34;;;;;;;28.58;25.13;;;19.50;99.90;;;;;;5016051;28;20272;-87
2022/08/19 06:15:03;;;;;;;28.85;24.70;;;19.50;99.90;;;;;;5015996;28;20174;-87
2022/08/19 06:17:29;;;;;;;33.30;26.58;;;19.50;99.90;;;;;;5016115;28;20175;-87
2022/08/19 06:19:56;;;;;;;27.48;23.42;;;19.60;99.90;;;;;;5015443;28;20269;-87
2022/08/19 06:22:21;;;;;;;31.17;25.67;;;19.60;99.90;;;;;;5015747;28;20302;-87
2022/08/19 06:24:47;;;;;;;30.95;26.85;;;19.60;99.90;;;;;;5015753;28;20269;-87
2022/08/19 06:27:13;;;;;;;31.13;25.15;;;19.60;99.90;;;;;;5031701;28;20202;-87
2022/08/19 06:29:39;;;;;;;31.13;24.67;;;19.70;99.90;;;;;;5032085;28;20261;-87
2022/08/19 06:32:05;;;;;;;29.00;25.02;;;19.70;99.90;;;;;;5031620;28;20289;-87
2022/08/19 06:34:33;;;;;;;28.85;25.40;;;19.70;99.90;;;;;;5015383;28;20178;-87
2022/08/19 06:37:01;;;;;;;31.17;26.25;;;19.70;99.90;;;;;;5032145;28;20190;-87
2022/08/19 06:39:30;;;;;;;29.00;24.90;;;19.70;99.90;;;;;;5031809;28;20189;-87
2022/08/19 06:41:59;;;;;;;31.38;27.23;;;19.70;99.90;;;;;;5015438;28;20269;-87
2022/08/19 06:44:34;;;;;;;32.88;28.75;;;19.70;99.90;;;;;;5015748;28;20183;-87
2022/08/19 06:47:03;;;;;;;32.60;27.25;;;19.70;99.90;;;;;;5031989;28;20202;-87
2022/08/19 06:49:30;;;;;;;30.02;25.63;;;19.80;99.90;;;;;;5015227;28;20179;-87
2022/08/19 06:51:58;;;;;;;32.65;26.85;;;19.80;99.90;;;;;;5015361;28;20209;-87
2022/08/19 06:54:25;;;;;;;31.77;25.92;;;19.80;99.90;;;;;;5015395;28;20185;-87
2022/08/19 06:56:51;;;;;;;29.73;25.90;;;19.80;99.90;;;;;;5031241;28;20174;-87
2022/08/19 06:59:20;;;;;;;30.85;25.92;;;19.90;99.90;;;;;;5014998;28;20182;-87
2022/08/19 07:02:03;;;;;;;31.02;26.88;;;19.90;99.90;;;;;;5014259;28;20203;-87
2022/08/19 07:04:57;;;;;;;30.08;26.88;;;19.90;99.90;;;;;;5015080;28;20174;-87
2022/08/19 07:07:24;;;;;;;33.17;27.40;;;19.90;99.90;;;;;;5031443;28;20201;-87
2022/08/19 07:09:52;;;;;;;29.20;26.00;;;19.90;99.90;;;;;;5015174;28;20186;-87
2022/08/19 07:12:18;;;;;;;25.95;22.80;;;19.90;99.90;;;;;;5014843;28;20195;-87
2022/08/19 07:14:45;;;;;;;30.95;27.55;;;19.90;99.90;;;;;;5014898;28;20174;-87
2022/08/19 07:17:12;;;;;;;28.85;25.75;;;19.90;99.90;;;;;;5047740;28;20210;-87
2022/08/19 07:19:39;;;;;;;35.25;26.48;;;19.90;99.90;;;;;;5014887;28;20193;-87
2022/08/19 07:22:07;;;;;;;29.15;25.50;;;20.00;99.90;;;;;;5031197;28;20203;-88
2022/08/19 07:24:34;;;;;;;29.30;26.17;;;20.00;99.90;;;;;;5014799;28;20409;-88
2022/08/19 07:27:02;;;;;;;31.17;27.02;;;20.00;99.90;;;;;;5014540;28;20217;-87
2022/08/19 07:29:30;;;;;;;29.80;26.13;;;20.00;99.90;;;;;;5015091;28;20237;-88
2022/08/19 07:31:58;;;;;;;28.60;25.55;;;20.10;99.90;;;;;;5015601;28;20200;-88
2022/08/19 07:34:25;;;;;;;30.35;25.15;;;20.10;99.90;;;;;;5018764;28;20202;-88
2022/08/19 07:36:52;;;;;;;31.20;27.30;;;20.10;99.90;;;;;;5018939;28;20265;-88
2022/08/19 07:39:22;;;;;;;32.67;27.67;;;20.20;99.90;;;;;;5035125;28;20179;-87
2022/08/19 07:41:48;;;;;;;28.50;24.52;;;20.10;99.90;;;;;;5018581;28;20203;-87
2022/08/19 07:44:15;;;;;;;27.73;24.73;;;20.10;99.90;;;;;;5018468;28;20232;-87
2022/08/19 07:46:45;;;;;;;28.98;25.95;;;20.20;99.90;;;;;;5018750;28;20220;-87
2022/08/19 07:49:17;;;;;;;29.45;26.25;;;20.20;99.90;;;;;;5018358;28;20182;-87
2022/08/19 07:51:44;;;;;;;29.55;26.35;;;20.20;99.90;;;;;;5034472;28;20203;-87
2022/08/19 07:54:11;;;;;;;27.90;24.88;;;20.20;99.90;;;;;;5018307;28;20181;-87
2022/08/19 07:56:37;;;;;;;25.60;22.90;;;20.20;99.90;;;;;;5017627;28;20233;-87
2022/08/19 07:59:04;;;;;;;25.15;22.45;;;20.20;99.90;;;;;;5018439;28;20182;-87
2022/08/19 08:01:30;;;;;;;26.63;23.73;;;20.20;99.90;;;;;;5018101;28;20189;-87
2022/08/19 08:09:32;;;;;;;26.58;23.58;;;20.40;99.90;;;;;;5035769;28;20206;-87
2022/08/19 08:12:01;;;;;;;27.13;24.15;;;20.40;99.90;;;;;;5017666;28;20257;-87
2022/08/19 08:14:35;;;;;;;23.10;20.67;;;20.40;99.90;;;;;;5018021;28;20277;-87
2022/08/19 08:17:02;;;;;;;24.52;21.90;;;20.40;99.90;;;;;;5017886;28;20179;-87
2022/08/19 08:19:28;;;;;;;24.00;21.40;;;20.40;99.90;;;;;;5018144;28;20191;-87
2022/08/19 08:21:56;;;;;;;23.20;20.70;;;20.40;99.90;;;;;;5017922;28;20202;-87
2022/08/19 08:24:24;;;;;;;25.05;22.30;;;20.40;99.90;;;;;;5019439;28;20466;-87
2022/08/19 08:26:49;;;;;;;26.13;22.55;;;20.40;99.90;;;;;;5016608;28;20202;-87
2022/08/19 08:29:15;;;;;;;23.00;20.67;;;20.40;99.90;;;;;;5018127;28;20186;-87
2022/08/19 08:31:43;;;;;;;23.35;20.95;;;20.40;99.90;;;;;;5034377;28;20195;-87
2022/08/19 08:34:14;;;;;;;23.67;21.23;;;20.40;99.90;;;;;;5017537;28;20183;-87
2022/08/19 08:36:44;;;;;;;21.27;18.77;;;20.40;99.90;;;;;;5034429;28;20273;-87
2022/08/19 08:39:13;;;;;;;19.85;17.23;;;20.40;99.90;;;;;;5017808;28;20191;-87
2022/08/19 08:41:52;;;;;;;20.33;18.13;;;20.40;99.90;;;;;;5017279;28;20225;-87
2022/08/19 08:44:42;;;;;;;21.30;19.08;;;20.40;99.90;;;;;;5016227;28;20171;-87
2022/08/19 08:47:16;;;;;;;20.23;17.58;;;20.40;99.90;;;;;;5028526;28;20269;-87
2022/08/19 08:49:54;;;;;;;19.15;17.17;;;20.40;99.90;;;;;;5017576;28;20174;-87
2022/08/19 08:52:29;;;;;;;20.63;18.08;;;20.30;99.90;;;;;;5017364;28;20206;-87
2022/08/19 08:54:58;;;;;;;19.58;17.67;;;20.40;99.90;;;;;;5033795;28;20178;-87
2022/08/19 08:57:31;;;;;;;17.75;15.85;;;20.30;99.90;;;;;;5017439;28;20236;-88
2022/08/19 08:59:57;;;;;;;19.58;16.73;;;20.20;99.90;;;;;;5016944;28;20651;-88
2022/08/19 09:02:23;;;;;;;17.35;15.65;;;20.20;99.90;;;;;;5017270;28;20240;-87
2022/08/19 09:04:49;;;;;;;19.85;17.17;;;20.20;99.90;;;;;;5033799;28;20198;-87
2022/08/19 09:07:37;;;;;;;18.05;16.23;;;20.20;99.90;;;;;;5017240;28;20198;-87
2022/08/19 09:10:31;;;;;;;19.65;17.70;;;20.20;99.90;;;;;;5017027;28;20193;-87
2022/08/19 09:13:08;;;;;;;21.67;18.15;;;20.20;99.90;;;;;;5016893;28;20218;-87
2022/08/19 09:15:48;;;;;;;21.00;18.92;;;20.20;99.90;;;;;;5016789;28;20189;-88
2022/08/19 09:18:16;;;;;;;18.85;16.85;;;20.20;99.90;;;;;;5016798;28;20178;-88
2022/08/19 09:20:42;;;;;;;20.65;18.40;;;20.20;99.90;;;;;;5016792;28;20182;-88
2022/08/19 09:23:09;;;;;;;20.35;18.25;;;20.20;99.90;;;;;;5016848;28;20207;-87
2022/08/19 09:25:35;;;;;;;19.88;17.92;;;20.20;99.90;;;;;;5016326;28;20257;-87
2022/08/19 09:28:04;;;;;;;19.63;17.60;;;20.20;99.90;;;;;;5016510;28;20670;-88
2022/08/19 09:30:33;;;;;;;20.15;18.05;;;20.30;99.90;;;;;;5016162;28;20182;-87
2022/08/19 09:32:59;;;;;;;22.15;19.88;;;20.30;99.90;;;;;;5016470;28;20210;-87
2022/08/19 09:35:31;;;;;;;19.67;17.58;;;20.30;99.90;;;;;;5016388;28;20270;-87
2022/08/19 09:37:58;;;;;;;22.92;19.67;;;20.30;99.90;;;;;;5016722;28;20166;-87
2022/08/19 09:40:25;;;;;;;21.15;19.05;;;20.30;99.90;;;;;;5016176;28;20267;-87
2022/08/19 09:42:52;;;;;;;20.88;18.67;;;20.30;99.90;;;;;;5032827;28;20313;-87
2022/08/19 09:45:23;;;;;;;21.92;19.73;;;20.30;99.90;;;;;;5016408;28;20210;-87
2022/08/19 09:47:52;;;;;;;22.40;20.15;;;20.20;99.90;;;;;;5016228;28;20167;-87
2022/08/19 09:50:18;;;;;;;22.40;20.00;;;20.20;99.90;;;;;;5049045;28;20194;-87
2022/08/19 09:52:46;;;;;;;21.02;18.85;;;20.20;99.90;;;;;;5016021;28;20198;-87
2022/08/19 09:55:12;;;;;;;22.27;19.75;;;20.20;99.90;;;;;;5032152;28;20171;-87
2022/08/19 09:57:38;;;;;;;23.38;20.80;;;20.10;99.90;;;;;;5015920;28;20189;-87
2022/08/19 10:00:07;;;;;;;22.75;20.35;;;20.10;99.90;;;;;;5015700;28;20190;-87
2022/08/19 10:02:33;;;;;;;22.15;20.02;;;20.00;99.90;;;;;;5032699;28;20201;-87
2022/08/19 10:07:43;;;;;;;20.40;18.45;;;20.00;99.90;;;;;;5032316;28;20175;-87
2022/08/19 10:10:10;;;;;;;23.70;21.30;;;20.00;99.90;;;;;;5015640;28;20178;-87
2022/08/19 10:12:37;;;;;;;22.13;19.88;;;20.10;99.90;;;;;;5015789;28;20227;-87
2022/08/19 10:15:05;;;;;;;23.17;20.67;;;20.10;99.90;;;;;;5015782;28;20178;-87
2022/08/19 10:17:34;;;;;;;21.55;19.45;;;20.20;99.90;;;;;;5015744;28;20174;-87
2022/08/19 10:20:03;;;;;;;21.95;19.63;;;20.20;99.90;;;;;;5015401;28;20245;-87
2022/08/19 10:22:29;;;;;;;21.77;19.65;;;20.20;99.90;;;;;;5015609;28;20202;-87
2022/08/19 10:25:06;;;;;;;21.38;19.35;;;20.20;99.90;;;;;;5014734;28;20623;-87
2022/08/19 10:27:32;;;;;;;18.58;16.73;;;20.30;99.90;;;;;;5015489;28;20197;-87
2022/08/19 10:29:58;;;;;;;22.85;20.55;;;20.30;99.90;;;;;;5031732;28;20179;-87
2022/08/19 10:32:25;;;;;;;21.45;18.95;;;20.30;99.90;;;;;;5015427;28;20198;-87
2022/08/19 10:34:52;;;;;;;21.30;19.20;;;20.40;99.90;;;;;;5031748;28;20189;-87
2022/08/19 10:37:17;;;;;;;21.23;19.13;;;20.40;99.90;;;;;;5015497;28;20190;-87
2022/08/19 10:39:48;;;;;;;22.58;20.35;;;20.40;99.90;;;;;;5032010;28;20182;-88
2022/08/19 10:42:15;;;;;;;21.10;19.10;;;20.40;99.90;;;;;;5015048;28;20260;-87
2022/08/19 10:44:42;;;;;;;20.52;18.42;;;20.40;99.90;;;;;;5025630;28;20185;-90
2022/08/19 10:47:08;;;;;;;21.75;19.58;;;20.40;99.90;;;;;;5043194;28;20221;-87
2022/08/19 10:52:32;;;;;;;20.75;18.67;;;20.40;99.90;;;;;;5032420;28;20179;-87
2022/08/19 10:52:34;;;;;;;19.05;17.25;;;20.50;99.90;;;;;;5046536;28;20199;-87
2022/08/19 10:57:58;;;;;;;23.50;21.00;;;20.60;99.90;;;;;;5031389;28;20200;-87
2022/08/19 11:00:25;;;;;;;22.92;20.60;;;20.60;99.90;;;;;;5015267;28;20225;-87
2022/08/19 11:02:52;;;;;;;22.05;19.80;;;20.60;99.90;;;;;;5014994;28;20194;-87
2022/08/19 11:05:18;;;;;;;28.83;26.02;;;20.70;99.90;;;;;;5014911;28;20202;-87
2022/08/19 11:07:45;;;;;;;28.80;25.90;;;20.70;99.90;;;;;;5030619;28;20178;-87
2022/08/19 11:10:13;;;;;;;27.83;25.00;;;20.60;99.90;;;;;;5014831;28;20186;-88
2022/08/19 11:12:40;;;;;;;30.55;27.45;;;20.60;99.90;;;;;;5014695;28;20205;-87
2022/08/19 11:15:10;;;;;;;25.35;22.73;;;20.60;99.90;;;;;;5014813;28;20174;-87
2022/08/19 11:17:43;;;;;;;27.00;24.27;;;20.60;99.90;;;;;;5014841;28;20173;-87
2022/08/19 11:20:11;;;;;;;28.67;25.67;;;20.60;99.90;;;;;;5031410;28;20173;-87
2022/08/19 11:22:38;;;;;;;26.17;23.42;;;20.50;99.90;;;;;;5015111;28;20663;-88
2022/08/19 11:25:04;;;;;;;25.17;22.60;;;20.50;99.90;;;;;;5031066;28;20194;-88
2022/08/19 11:27:30;;;;;;;23.70;21.40;;;20.50;99.90;;;;;;5015084;28;20190;-87
2022/08/19 11:29:56;;;;;;;30.42;27.15;;;20.50;99.90;;;;;;5014987;28;20173;-88
2022/08/19 11:32:22;;;;;;;31.13;27.48;;;20.40;99.90;;;;;;5030328;28;20195;-86
2022/08/19 11:34:48;;;;;;;32.17;28.67;;;20.40;99.90;;;;;;5031269;28;20170;-88
2022/08/19 11:37:15;;;;;;;28.38;25.17;;;20.50;99.90;;;;;;5014789;28;20186;-88
2022/08/19 11:39:41;;;;;;;29.02;25.85;;;20.40;99.90;;;;;;5014912;28;20213;-88
2022/08/19 11:42:55;;;;;;;28.70;25.52;;;20.40;99.90;;;;;;5014456;28;20226;-88
2022/08/19 11:44:53;;;;;;;29.25;25.98;;;20.40;99.90;;;;;;5031011;28;20194;-88
2022/08/19 11:47:19;;;;;;;28.23;25.23;;;20.50;99.90;;;;;;5014490;28;20210;-87
2022/08/19 11:49:46;;;;;;;29.42;26.48;;;20.50;99.90;;;;;;5014394;28;20174;-88
2022/08/19 11:52:12;;;;;;;28.10;25.05;;;20.40;99.90;;;;;;5014346;28;20260;-88
2022/08/19 11:54:38;;;;;;;29.60;26.60;;;20.40;99.90;;;;;;5014946;28;20182;-87
2022/08/19 11:57:04;;;;;;;25.60;23.05;;;20.40;99.90;;;;;;5014642;28;20638;-87
2022/08/19 11:59:30;;;;;;;28.38;25.48;;;20.40;99.90;;;;;;5014057;28;20182;-88
2022/08/19 12:01:57;;;;;;;28.20;25.30;;;20.40;99.90;;;;;;5013995;28;20207;-87
2022/08/19 12:04:23;;;;;;;31.33;28.00;;;20.40;99.90;;;;;;5014752;28;20182;-87
2022/08/19 12:06:49;;;;;;;32.22;28.92;;;20.30;99.90;;;;;;5014239;28;20205;-88
2022/08/19 12:09:17;;;;;;;28.95;25.98;;;20.30;99.90;;;;;;5014384;28;20242;-87
2022/08/19 12:11:43;;;;;;;31.98;28.55;;;20.20;99.90;;;;;;5014084;28;20284;-88
2022/08/19 12:14:12;;;;;;;30.23;26.90;;;20.20;99.90;;;;;;5030981;28;20179;-88
2022/08/19 12:16:38;;;;;;;29.70;26.40;;;20.20;99.90;;;;;;5014721;28;20186;-88
2022/08/19 12:19:05;;;;;;;29.73;26.75;;;20.20;99.90;;;;;;5017476;28;20236;-87
2022/08/19 12:21:34;;;;;;;28.02;25.10;;;20.20;99.90;;;;;;5033628;28;20265;-87
2022/08/19 12:24:04;;;;;;;30.88;27.70;;;20.20;99.90;;;;;;5017500;28;20178;-88
2022/08/19 12:26:31;;;;;;;27.08;24.15;;;20.20;99.90;;;;;;5017838;28;20211;-87
2022/08/19 12:28:59;;;;;;;26.55;23.88;;;20.20;99.90;;;;;;5017781;28;20193;-87
2022/08/19 12:31:27;;;;;;;26.40;23.60;;;20.20;99.90;;;;;;5017509;28;20183;-88
2022/08/19 12:33:53;;;;;;;27.45;24.67;;;20.20;99.90;;;;;;5017621;28;20179;-88
2022/08/19 12:36:19;;;;;;;28.10;25.20;;;20.20;99.90;;;;;;5017979;28;20277;-87
2022/08/19 12:38:46;;;;;;;27.00;24.25;;;20.20;99.90;;;;;;5017515;28;20187;-88
2022/08/19 12:41:15;;;;;;;27.70;24.80;;;20.20;99.90;;;;;;5033861;28;20183;-88
2022/08/19 12:43:41;;;;;;;27.95;24.50;;;20.20;99.90;;;;;;5017566;28;20206;-87
2022/08/19 12:46:08;;;;;;;27.02;24.33;;;20.20;99.90;;;;;;5017589;28;20205;-87
2022/08/19 12:48:34;;;;;;;27.45;24.80;;;20.20;99.90;;;;;;5017430;28;20182;-88
2022/08/19 12:51:12;;;;;;;29.30;26.23;;;20.30;99.90;;;;;;5016926;28;20183;-87
2022/08/19 12:53:38;;;;;;;25.40;22.90;;;20.40;99.90;;;;;;5033850;28;20276;-87
2022/08/19 12:56:05;;;;;;;25.42;22.90;;;20.40;99.90;;;;;;5017620;28;20518;-88
2022/08/19 12:58:34;;;;;;;26.20;23.42;;;20.40;99.90;;;;;;5017370;28;20265;-87
2022/08/19 13:01:08;;;;;;;24.40;21.85;;;20.40;99.90;;;;;;5017315;28;20233;-87